sensor_id;sensor_type;location;lat;lon;timestamp;P1;durP1;ratioP1;P2;durP2;ratioP2
19364;SDS011;9818;48.382;10.850;2022-08-07T00:01:10;9.17;;;8.10;;
19364;SDS011;9818;48.382;10.850;2022-08-07T00:03:40;8.57;;;7.40;;
19364;SDS011;9818;48.382;10.850;2022-08-07T00:06:08;8.83;;;7.57;;
19364;SDS011;9818;48.382;10.850;2022-08-07T00:08:40;8.73;;;7.83;;
19364;SDS011;9818;48.382;10.850;2022-08-07T00:11:09;9.67;;;8.77;;
19364;SDS011;9818;48.382;10.850;2022-08-07T00:13:38;8.60;;;7.70;;
19364;SDS011;9818;48.382;10.850;2022-08-07T00:16:08;8.77;;;7.87;;
19364;SDS011;9818;48.382;10.850;2022-08-07T00:18:38;8.37;;;7.53;;
19364;SDS011;9818;48.382;10.850;2022-08-07T00:21:08;9.63;;;8.63;;
19364;SDS011;9818;48.382;10.850;2022-08-07T00:23:39;8.83;;;7.93;;
19364;SDS011;9818;48.382;10.850;2022-08-07T00:26:09;9.43;;;8.27;;
19364;SDS011;9818;48.382;10.850;2022-08-07T00:28:38;9.40;;;8.47;;
19364;SDS011;9818;48.382;10.850;2022-08-07T00:31:08;9.70;;;8.70;;
19364;SDS011;9818;48.382;10.850;2022-08-07T00:33:38;10.77;;;8.27;;
19364;SDS011;9818;48.382;10.850;2022-08-07T00:36:08;10.13;;;9.07;;
19364;SDS011;9818;48.382;10.850;2022-08-07T00:38:39;10.37;;;9.37;;
19364;SDS011;9818;48.382;10.850;2022-08-07T00:41:08;11.80;;;9.77;;
19364;SDS011;9818;48.382;10.850;2022-08-07T00:43:37;11.37;;;9.87;;
19364;SDS011;9818;48.382;10.850;2022-08-07T00:46:05;9.60;;;8.50;;
19364;SDS011;9818;48.382;10.850;2022-08-07T00:48:34;10.73;;;9.23;;
19364;SDS011;9818;48.382;10.850;2022-08-07T00:51:03;10.77;;;9.03;;
19364;SDS011;9818;48.382;10.850;2022-08-07T00:53:32;10.57;;;9.33;;
19364;SDS011;9818;48.382;10.850;2022-08-07T00:56:04;10.87;;;9.77;;
19364;SDS011;9818;48.382;10.850;2022-08-07T00:58:35;10.10;;;9.10;;
19364;SDS011;9818;48.382;10.850;2022-08-07T01:01:07;11.07;;;9.27;;
19364;SDS011;9818;48.382;10.850;2022-08-07T01:03:36;11.20;;;9.27;;
19364;SDS011;9818;48.382;10.850;2022-08-07T01:06:06;10.30;;;9.20;;
19364;SDS011;9818;48.382;10.850;2022-08-07T01:08:36;10.30;;;9.20;;
19364;SDS011;9818;48.382;10.850;2022-08-07T01:20:52;13.90;;;11.30;;
19364;SDS011;9818;48.382;10.850;2022-08-07T01:23:29;13.93;;;10.80;;
19364;SDS011;9818;48.382;10.850;2022-08-07T01:25:59;12.97;;;10.53;;
19364;SDS011;9818;48.382;10.850;2022-08-07T01:28:28;12.63;;;10.83;;
19364;SDS011;9818;48.382;10.850;2022-08-07T01:30:58;14.97;;;12.00;;
19364;SDS011;9818;48.382;10.850;2022-08-07T01:33:28;12.83;;;10.93;;
19364;SDS011;9818;48.382;10.850;2022-08-07T01:36:00;13.53;;;10.70;;
19364;SDS011;9818;48.382;10.850;2022-08-07T01:38:32;12.57;;;10.90;;
19364;SDS011;9818;48.382;10.850;2022-08-07T01:41:02;13.77;;;11.20;;
19364;SDS011;9818;48.382;10.850;2022-08-07T01:43:32;13.27;;;11.23;;
19364;SDS011;9818;48.382;10.850;2022-08-07T01:46:01;10.80;;;9.70;;
19364;SDS011;9818;48.382;10.850;2022-08-07T01:48:30;11.47;;;10.10;;
19364;SDS011;9818;48.382;10.850;2022-08-07T01:51:03;11.03;;;9.67;;
19364;SDS011;9818;48.382;10.850;2022-08-07T01:53:35;11.63;;;10.13;;
19364;SDS011;9818;48.382;10.850;2022-08-07T01:56:08;11.03;;;9.93;;
19364;SDS011;9818;48.382;10.850;2022-08-07T01:58:40;11.07;;;9.20;;
19364;SDS011;9818;48.382;10.850;2022-08-07T02:01:12;10.23;;;8.83;;
19364;SDS011;9818;48.382;10.850;2022-08-07T02:03:49;12.37;;;11.07;;
19364;SDS011;9818;48.382;10.850;2022-08-07T02:06:26;10.50;;;9.40;;
19364;SDS011;9818;48.382;10.850;2022-08-07T02:08:58;10.87;;;9.07;;
19364;SDS011;9818;48.382;10.850;2022-08-07T02:11:29;10.17;;;9.07;;
19364;SDS011;9818;48.382;10.850;2022-08-07T02:14:00;12.17;;;10.33;;
19364;SDS011;9818;48.382;10.850;2022-08-07T02:16:31;10.50;;;9.40;;
19364;SDS011;9818;48.382;10.850;2022-08-07T02:19:02;9.20;;;8.30;;
19364;SDS011;9818;48.382;10.850;2022-08-07T02:21:36;10.30;;;8.70;;
19364;SDS011;9818;48.382;10.850;2022-08-07T02:24:06;9.93;;;8.93;;
19364;SDS011;9818;48.382;10.850;2022-08-07T02:26:36;9.67;;;8.60;;
19364;SDS011;9818;48.382;10.850;2022-08-07T02:29:06;11.23;;;9.97;;
19364;SDS011;9818;48.382;10.850;2022-08-07T02:31:37;10.80;;;9.43;;
19364;SDS011;9818;48.382;10.850;2022-08-07T02:34:06;10.97;;;8.70;;
19364;SDS011;9818;48.382;10.850;2022-08-07T02:36:39;10.07;;;8.93;;
19364;SDS011;9818;48.382;10.850;2022-08-07T02:39:09;9.73;;;8.73;;
19364;SDS011;9818;48.382;10.850;2022-08-07T02:41:38;8.93;;;8.03;;
19364;SDS011;9818;48.382;10.850;2022-08-07T02:44:08;9.17;;;8.27;;
19364;SDS011;9818;48.382;10.850;2022-08-07T02:46:38;8.80;;;7.90;;
19364;SDS011;9818;48.382;10.850;2022-08-07T02:49:08;9.63;;;8.63;;
19364;SDS011;9818;48.382;10.850;2022-08-07T02:51:39;10.53;;;9.27;;
19364;SDS011;9818;48.382;10.850;2022-08-07T02:54:09;10.73;;;8.63;;
19364;SDS011;9818;48.382;10.850;2022-08-07T02:56:39;8.57;;;7.67;;
19364;SDS011;9818;48.382;10.850;2022-08-07T02:59:09;11.27;;;8.93;;
19364;SDS011;9818;48.382;10.850;2022-08-07T03:01:41;8.97;;;8.07;;
19364;SDS011;9818;48.382;10.850;2022-08-07T03:04:12;10.87;;;9.50;;
19364;SDS011;9818;48.382;10.850;2022-08-07T03:06:43;9.40;;;8.43;;
19364;SDS011;9818;48.382;10.850;2022-08-07T03:09:14;9.70;;;8.70;;
19364;SDS011;9818;48.382;10.850;2022-08-07T03:11:45;10.97;;;9.00;;
19364;SDS011;9818;48.382;10.850;2022-08-07T03:14:15;10.63;;;8.77;;
19364;SDS011;9818;48.382;10.850;2022-08-07T03:16:45;11.17;;;8.87;;
19364;SDS011;9818;48.382;10.850;2022-08-07T03:19:13;11.83;;;9.13;;
19364;SDS011;9818;48.382;10.850;2022-08-07T03:21:45;10.93;;;9.23;;
19364;SDS011;9818;48.382;10.850;2022-08-07T03:24:15;10.43;;;9.33;;
19364;SDS011;9818;48.382;10.850;2022-08-07T03:26:44;10.20;;;8.93;;
19364;SDS011;9818;48.382;10.850;2022-08-07T03:29:16;11.13;;;8.93;;
19364;SDS011;9818;48.382;10.850;2022-08-07T03:31:46;9.67;;;8.63;;
19364;SDS011;9818;48.382;10.850;2022-08-07T03:34:16;11.13;;;9.30;;
19364;SDS011;9818;48.382;10.850;2022-08-07T03:36:49;10.20;;;8.47;;
19364;SDS011;9818;48.382;10.850;2022-08-07T03:39:19;12.23;;;8.53;;
19364;SDS011;9818;48.382;10.850;2022-08-07T03:41:49;10.23;;;8.63;;
19364;SDS011;9818;48.382;10.850;2022-08-07T03:44:18;8.60;;;7.70;;
19364;SDS011;9818;48.382;10.850;2022-08-07T03:46:47;10.13;;;8.70;;
19364;SDS011;9818;48.382;10.850;2022-08-07T03:49:16;11.17;;;9.23;;
19364;SDS011;9818;48.382;10.850;2022-08-07T03:51:45;9.77;;;7.63;;
19364;SDS011;9818;48.382;10.850;2022-08-07T03:54:18;10.80;;;8.37;;
19364;SDS011;9818;48.382;10.850;2022-08-07T03:56:47;9.67;;;8.67;;
19364;SDS011;9818;48.382;10.850;2022-08-07T03:59:17;9.10;;;8.17;;
19364;SDS011;9818;48.382;10.850;2022-08-07T04:01:46;9.77;;;8.63;;
19364;SDS011;9818;48.382;10.850;2022-08-07T04:04:16;9.43;;;8.40;;
19364;SDS011;9818;48.382;10.850;2022-08-07T04:06:45;9.60;;;7.97;;
19364;SDS011;9818;48.382;10.850;2022-08-07T04:09:18;9.27;;;8.03;;
19364;SDS011;9818;48.382;10.850;2022-08-07T04:11:48;9.23;;;8.20;;
19364;SDS011;9818;48.382;10.850;2022-08-07T04:14:17;10.30;;;8.73;;
19364;SDS011;9818;48.382;10.850;2022-08-07T04:16:47;9.37;;;8.20;;
19364;SDS011;9818;48.382;10.850;2022-08-07T04:19:16;11.87;;;8.60;;
19364;SDS011;9818;48.382;10.850;2022-08-07T04:21:45;12.47;;;9.40;;
19364;SDS011;9818;48.382;10.850;2022-08-07T04:24:17;8.73;;;7.83;;
19364;SDS011;9818;48.382;10.850;2022-08-07T04:26:46;13.13;;;9.07;;
19364;SDS011;9818;48.382;10.850;2022-08-07T04:29:15;10.23;;;9.13;;
19364;SDS011;9818;48.382;10.850;2022-08-07T04:31:43;11.47;;;10.27;;
19364;SDS011;9818;48.382;10.850;2022-08-07T04:34:13;12.70;;;11.17;;
19364;SDS011;9818;48.382;10.850;2022-08-07T04:36:43;12.37;;;10.27;;
19364;SDS011;9818;48.382;10.850;2022-08-07T04:39:14;11.87;;;9.87;;
19364;SDS011;9818;48.382;10.850;2022-08-07T04:41:43;12.90;;;10.43;;
19364;SDS011;9818;48.382;10.850;2022-08-07T04:44:12;12.00;;;10.40;;
19364;SDS011;9818;48.382;10.850;2022-08-07T04:46:43;12.77;;;11.27;;
19364;SDS011;9818;48.382;10.850;2022-08-07T04:49:17;14.90;;;11.60;;
19364;SDS011;9818;48.382;10.850;2022-08-07T04:51:55;10.63;;;9.30;;
19364;SDS011;9818;48.382;10.850;2022-08-07T04:54:33;14.53;;;10.53;;
19364;SDS011;9818;48.382;10.850;2022-08-07T04:57:08;13.27;;;11.63;;
19364;SDS011;9818;48.382;10.850;2022-08-07T04:59:45;12.60;;;10.97;;
19364;SDS011;9818;48.382;10.850;2022-08-07T05:02:23;11.73;;;9.53;;
19364;SDS011;9818;48.382;10.850;2022-08-07T05:04:57;11.90;;;10.60;;
19364;SDS011;9818;48.382;10.850;2022-08-07T05:07:31;11.67;;;9.87;;
19364;SDS011;9818;48.382;10.850;2022-08-07T05:10:07;10.50;;;9.40;;
19364;SDS011;9818;48.382;10.850;2022-08-07T05:12:40;9.93;;;8.93;;
19364;SDS011;9818;48.382;10.850;2022-08-07T05:45:16;5.03;;;4.53;;
19364;SDS011;9818;48.382;10.850;2022-08-07T05:47:47;5.27;;;4.80;;
19364;SDS011;9818;48.382;10.850;2022-08-07T05:50:17;4.47;;;3.80;;
19364;SDS011;9818;48.382;10.850;2022-08-07T05:52:46;4.50;;;4.10;;
19364;SDS011;9818;48.382;10.850;2022-08-07T06:00:15;4.13;;;3.23;;
19364;SDS011;9818;48.382;10.850;2022-08-07T06:02:47;3.93;;;3.63;;
19364;SDS011;9818;48.382;10.850;2022-08-07T06:05:18;4.70;;;3.73;;
19364;SDS011;9818;48.382;10.850;2022-08-07T06:07:50;4.77;;;3.50;;
19364;SDS011;9818;48.382;10.850;2022-08-07T06:10:20;5.90;;;3.20;;
19364;SDS011;9818;48.382;10.850;2022-08-07T06:12:49;4.50;;;2.93;;
19364;SDS011;9818;48.382;10.850;2022-08-07T06:15:20;3.10;;;2.90;;
19364;SDS011;9818;48.382;10.850;2022-08-07T06:17:50;2.93;;;2.73;;
19364;SDS011;9818;48.382;10.850;2022-08-07T06:20:19;2.93;;;2.73;;
19364;SDS011;9818;48.382;10.850;2022-08-07T06:22:49;2.50;;;2.30;;
19364;SDS011;9818;48.382;10.850;2022-08-07T06:25:20;4.77;;;2.20;;
19364;SDS011;9818;48.382;10.850;2022-08-07T06:27:48;2.60;;;2.40;;
19364;SDS011;9818;48.382;10.850;2022-08-07T06:30:17;3.43;;;2.60;;
19364;SDS011;9818;48.382;10.850;2022-08-07T06:32:48;2.30;;;2.10;;
19364;SDS011;9818;48.382;10.850;2022-08-07T06:35:17;2.03;;;1.83;;
19364;SDS011;9818;48.382;10.850;2022-08-07T06:37:46;2.30;;;2.10;;
19364;SDS011;9818;48.382;10.850;2022-08-07T06:40:15;2.60;;;2.00;;
19364;SDS011;9818;48.382;10.850;2022-08-07T06:42:44;1.80;;;1.70;;
19364;SDS011;9818;48.382;10.850;2022-08-07T06:45:16;1.70;;;1.60;;
19364;SDS011;9818;48.382;10.850;2022-08-07T06:47:48;1.70;;;1.60;;
19364;SDS011;9818;48.382;10.850;2022-08-07T06:50:17;2.00;;;1.70;;
19364;SDS011;9818;48.382;10.850;2022-08-07T06:52:46;1.80;;;1.67;;
19364;SDS011;9818;48.382;10.850;2022-08-07T06:55:22;2.23;;;1.70;;
19364;SDS011;9818;48.382;10.850;2022-08-07T07:15:25;1.73;;;1.57;;
19364;SDS011;9818;48.382;10.850;2022-08-07T07:18:00;1.80;;;1.27;;
19364;SDS011;9818;48.382;10.850;2022-08-07T07:20:34;2.00;;;1.90;;
19364;SDS011;9818;48.382;10.850;2022-08-07T07:23:04;1.90;;;1.70;;
19364;SDS011;9818;48.382;10.850;2022-08-07T07:25:34;1.70;;;1.60;;
19364;SDS011;9818;48.382;10.850;2022-08-07T07:28:08;4.10;;;2.00;;
19364;SDS011;9818;48.382;10.850;2022-08-07T07:30:42;2.30;;;1.87;;
19364;SDS011;9818;48.382;10.850;2022-08-07T07:33:17;2.03;;;1.60;;
19364;SDS011;9818;48.382;10.850;2022-08-07T07:35:49;1.67;;;1.57;;
19364;SDS011;9818;48.382;10.850;2022-08-07T07:38:19;1.60;;;1.50;;
19364;SDS011;9818;48.382;10.850;2022-08-07T07:40:50;2.13;;;1.67;;
19364;SDS011;9818;48.382;10.850;2022-08-07T07:43:21;2.37;;;2.17;;
19364;SDS011;9818;48.382;10.850;2022-08-07T07:45:51;2.77;;;2.00;;
19364;SDS011;9818;48.382;10.850;2022-08-07T07:48:24;1.70;;;1.60;;
19364;SDS011;9818;48.382;10.850;2022-08-07T07:50:55;2.30;;;2.00;;
19364;SDS011;9818;48.382;10.850;2022-08-07T07:53:26;1.90;;;1.80;;
19364;SDS011;9818;48.382;10.850;2022-08-07T07:55:57;1.80;;;1.70;;
19364;SDS011;9818;48.382;10.850;2022-08-07T07:58:28;1.87;;;1.70;;
19364;SDS011;9818;48.382;10.850;2022-08-07T08:00:58;4.27;;;1.80;;
19364;SDS011;9818;48.382;10.850;2022-08-07T08:03:31;2.43;;;1.80;;
19364;SDS011;9818;48.382;10.850;2022-08-07T08:06:02;1.77;;;1.67;;
19364;SDS011;9818;48.382;10.850;2022-08-07T08:08:33;2.10;;;1.90;;
19364;SDS011;9818;48.382;10.850;2022-08-07T08:11:06;2.97;;;2.28;;
19364;SDS011;9818;48.382;10.850;2022-08-07T08:13:38;2.13;;;1.77;;
19364;SDS011;9818;48.382;10.850;2022-08-07T08:16:11;2.15;;;1.95;;
19364;SDS011;9818;48.382;10.850;2022-08-07T08:18:46;2.88;;;1.88;;
19364;SDS011;9818;48.382;10.850;2022-08-07T08:21:18;2.72;;;2.33;;
19364;SDS011;9818;48.382;10.850;2022-08-07T08:24:00;2.10;;;1.90;;
19364;SDS011;9818;48.382;10.850;2022-08-07T08:26:43;2.08;;;1.88;;
19364;SDS011;9818;48.382;10.850;2022-08-07T08:29:24;2.13;;;1.92;;
19364;SDS011;9818;48.382;10.850;2022-08-07T08:31:54;2.17;;;1.88;;
19364;SDS011;9818;48.382;10.850;2022-08-07T08:34:26;3.70;;;1.90;;
19364;SDS011;9818;48.382;10.850;2022-08-07T08:36:57;2.85;;;2.10;;
19364;SDS011;9818;48.382;10.850;2022-08-07T08:39:26;1.88;;;1.75;;
19364;SDS011;9818;48.382;10.850;2022-08-07T08:41:58;1.90;;;1.80;;
19364;SDS011;9818;48.382;10.850;2022-08-07T08:44:32;2.05;;;1.85;;
19364;SDS011;9818;48.382;10.850;2022-08-07T08:47:07;2.00;;;1.80;;
19364;SDS011;9818;48.382;10.850;2022-08-07T08:49:55;2.88;;;1.60;;
19364;SDS011;9818;48.382;10.850;2022-08-07T08:52:31;2.03;;;1.70;;
19364;SDS011;9818;48.382;10.850;2022-08-07T08:55:05;2.20;;;1.90;;
19364;SDS011;9818;48.382;10.850;2022-08-07T08:57:41;3.78;;;1.98;;
19364;SDS011;9818;48.382;10.850;2022-08-07T09:07:56;1.83;;;1.70;;
19364;SDS011;9818;48.382;10.850;2022-08-07T09:10:33;1.55;;;1.45;;
19364;SDS011;9818;48.382;10.850;2022-08-07T09:13:11;2.05;;;1.60;;
19364;SDS011;9818;48.382;10.850;2022-08-07T10:13:58;1.95;;;1.60;;
19364;SDS011;9818;48.382;10.850;2022-08-07T10:16:47;1.30;;;1.20;;
19364;SDS011;9818;48.382;10.850;2022-08-07T10:19:42;1.40;;;1.30;;
19364;SDS011;9818;48.382;10.850;2022-08-07T10:22:25;1.50;;;1.40;;
19364;SDS011;9818;48.382;10.850;2022-08-07T10:25:18;1.40;;;1.30;;
19364;SDS011;9818;48.382;10.850;2022-08-07T10:28:02;1.77;;;1.40;;
19364;SDS011;9818;48.382;10.850;2022-08-07T10:30:46;1.60;;;1.30;;
19364;SDS011;9818;48.382;10.850;2022-08-07T10:33:29;2.70;;;1.40;;
19364;SDS011;9818;48.382;10.850;2022-08-07T10:36:16;1.93;;;1.47;;
19364;SDS011;9818;48.382;10.850;2022-08-07T10:38:56;1.90;;;1.20;;
19364;SDS011;9818;48.382;10.850;2022-08-07T10:41:33;2.47;;;1.53;;
19364;SDS011;9818;48.382;10.850;2022-08-07T10:44:08;2.30;;;1.45;;
19364;SDS011;9818;48.382;10.850;2022-08-07T10:46:45;5.57;;;1.33;;
19364;SDS011;9818;48.382;10.850;2022-08-07T10:49:22;1.77;;;1.60;;
19364;SDS011;9818;48.382;10.850;2022-08-07T10:52:04;1.80;;;1.30;;
